Time;durP1;ratioP1;P1;durP2;ratioP2;P2;SDS_P1;SDS_P2;PMS_P1;PMS_P2;Temp;Humidity;BMP_temperature;BMP_pressure;BME280_temperature;BME280_humidity;BME280_pressure;Samples;Min_cycle;Max_cycle;Signal;HPM_P1;HPM_P2
2022/05/24 00:02:08;;;;;;;5.40;2.20;;;;;;;15.98;48.14;99539.70;1750016;82;21007;-86
2022/05/24 00:04:35;;;;;;;;;;;;;;;15.97;48.22;99534.06;1752506;82;21001;-86
2022/05/24 00:07:04;;;;;;;5.00;2.40;;;;;;;15.98;48.30;99530.45;1749808;82;20487;-86
2022/05/24 00:09:36;;;;;;;5.35;1.90;;;;;;;15.99;48.35;99533.45;1749220;82;21105;-86
2022/05/24 00:12:12;;;;;;;2.92;2.10;;;;;;;15.99;48.36;99527.72;1769258;80;21086;-86
2022/05/24 00:17:25;;;;;;;5.17;2.08;;;;;;;15.99;48.45;99529.03;1750902;82;20997;-85
2022/05/24 00:19:52;;;;;;;4.60;2.17;;;;;;;16.00;48.51;99515.34;1750723;82;21509;-85
2022/05/24 00:22:19;;;;;;;3.50;2.00;;;;;;;16.01;48.56;99511.24;1750532;82;21518;-86
2022/05/24 00:24:46;;;;;;;6.25;2.00;;;;;;;16.03;48.62;99503.22;1750748;82;21042;-86
2022/05/24 00:27:13;;;;;;;3.85;2.10;;;;;;;16.03;48.58;99493.96;1750543;82;20997;-85
2022/05/24 00:29:40;;;;;;;5.58;2.37;;;;;;;16.02;48.63;99489.64;1750463;82;21013;-86
2022/05/24 00:32:13;;;;;;;3.87;2.33;;;;;;;16.01;48.67;99491.42;1749751;82;20974;-86
2022/05/24 00:34:42;;;;;;;5.75;2.02;;;;;;;16.02;48.65;99492.29;1750061;81;21125;-86
2022/05/24 00:37:12;;;;;;;3.85;2.10;;;;;;;16.04;48.79;99496.95;1750235;80;21024;-85
2022/05/24 00:39:39;;;;;;;4.45;1.85;;;;;;;16.03;48.94;99480.75;1727169;82;21485;-85
2022/05/24 00:42:11;;;;;;;4.97;2.47;;;;;;;16.03;49.24;99468.85;1750852;82;21005;-86
2022/05/24 00:44:42;;;;;;;5.08;2.20;;;;;;;16.01;49.46;99481.33;1750171;82;21057;-85
2022/05/24 00:47:18;;;;;;;3.75;1.98;;;;;;;15.97;49.78;99475.92;1749772;82;21119;-86
2022/05/24 00:50:01;;;;;;;3.70;2.15;;;;;;;15.93;49.79;99476.61;1749310;82;21636;-85
2022/05/24 00:53:00;;;;;;;3.08;2.08;;;;;;;15.89;49.89;99460.63;1748576;80;21052;-86
2022/05/24 00:55:27;;;;;;;4.62;2.10;;;;;;;15.86;50.04;99452.09;1749725;82;21041;-86
2022/05/24 00:58:08;;;;;;;4.90;2.10;;;;;;;15.82;50.06;99434.28;1750568;82;21036;-85
2022/05/24 01:00:38;;;;;;;5.12;2.22;;;;;;;15.79;50.18;99428.73;1750694;82;21122;-85
2022/05/24 01:03:06;;;;;;;4.58;2.22;;;;;;;15.76;50.28;99430.30;1750556;82;21001;-85
2022/05/24 01:05:34;;;;;;;2.95;1.87;;;;;;;15.77;50.22;99421.43;1750614;82;21115;-85
2022/05/24 01:08:01;;;;;;;10.23;2.72;;;;;;;15.77;50.30;99409.54;1750671;82;21010;-84
2022/05/24 01:10:48;;;;;;;6.00;1.92;;;;;;;15.78;50.46;99411.22;1750666;82;21092;-85
2022/05/24 01:13:23;;;;;;;3.92;2.30;;;;;;;15.77;50.63;99418.79;1750845;82;21958;-85
2022/05/24 01:15:51;;;;;;;4.50;2.22;;;;;;;15.77;50.55;99417.47;1771814;80;21023;-85
2022/05/24 01:18:21;;;;;;;3.35;2.30;;;;;;;15.76;50.64;99424.17;1750848;82;21045;-85
2022/05/24 01:20:56;;;;;;;5.15;2.45;;;;;;;15.75;50.69;99415.89;1750719;82;21048;-85
2022/05/24 01:23:36;;;;;;;3.08;2.15;;;;;;;15.72;50.80;99422.24;1750321;80;21511;-85
2022/05/24 01:26:34;;;;;;;7.00;2.40;;;;;;;15.73;50.86;99434.97;1750668;82;21183;-86
2022/05/24 01:29:09;;;;;;;7.67;2.50;;;;;;;15.72;50.71;99443.86;1750937;82;20875;-85
2022/05/24 01:37:12;;;;;;;5.75;2.60;;;;;;;15.71;50.88;99440.83;1750838;82;21087;-85
2022/05/24 01:39:43;;;;;;;2.52;2.12;;;;;;;15.70;50.97;99435.20;1730958;80;21759;-85
2022/05/24 01:42:13;;;;;;;3.47;2.30;;;;;;;15.69;50.97;99433.04;1728093;83;21015;-85
2022/05/24 01:44:52;;;;;;;6.12;2.30;;;;;;;15.65;50.97;99434.17;1762519;80;21524;-85
2022/05/24 01:47:21;;;;;;;4.58;2.30;;;;;;;15.62;51.10;99427.80;1751747;80;21528;-85
2022/05/24 01:49:52;;;;;;;;;;;;;;;15.61;51.32;99417.72;1731002;83;22280;-84
2022/05/24 01:52:36;;;;;;;7.30;2.33;;;;;;;15.61;51.56;99424.32;1728297;82;21101;-85
2022/05/24 01:55:08;;;;;;;5.00;2.30;;;;;;;15.60;51.45;99427.93;1727727;82;21474;-85
2022/05/24 01:57:40;;;;;;;2.92;2.12;;;;;;;15.59;51.61;99421.42;1728429;83;21054;-85
2022/05/24 02:00:12;;;;;;;4.42;2.30;;;;;;;15.57;51.61;99416.27;1728819;83;20992;-84
2022/05/24 02:02:46;;;;;;;6.50;2.60;;;;;;;15.58;51.68;99425.03;1762460;81;21461;-85
2022/05/24 02:05:33;;;;;;;3.30;2.22;;;;;;;15.57;51.82;99419.36;1762201;81;21126;-85
2022/05/24 02:08:00;;;;;;;3.95;2.42;;;;;;;15.56;51.86;99419.84;1761428;80;21066;-86
2022/05/24 02:10:33;;;;;;;4.33;2.35;;;;;;;15.55;51.93;99422.62;1728701;82;21521;-85
2022/05/24 02:13:02;;;;;;;5.95;2.52;;;;;;;15.55;52.00;99418.17;1728077;82;21062;-85
2022/05/24 02:15:35;;;;;;;5.33;2.52;;;;;;;15.53;52.11;99414.80;1728738;81;21055;-85
2022/05/24 02:18:13;;;;;;;4.47;2.67;;;;;;;15.52;52.09;99422.36;1728607;83;21893;-85
2022/05/24 02:20:44;;;;;;;3.77;2.40;;;;;;;15.51;52.23;99419.81;1704166;83;21058;-85
2022/05/24 02:23:15;;;;;;;3.52;2.30;;;;;;;15.51;52.28;99411.89;1702900;84;21495;-85
2022/05/24 02:25:58;;;;;;;3.62;2.42;;;;;;;15.51;52.34;99406.61;1671034;85;21645;-85
2022/05/24 02:28:29;;;;;;;3.30;1.95;;;;;;;15.51;52.47;99402.17;1671268;85;21031;-85
2022/05/24 02:31:00;;;;;;;5.47;2.47;;;;;;;15.51;52.38;99401.33;1702592;84;21736;-85
2022/05/24 02:33:28;;;;;;;4.58;2.15;;;;;;;15.50;52.55;99396.53;1671081;85;21133;-86
2022/05/24 02:35:56;;;;;;;5.05;2.27;;;;;;;15.51;52.54;99397.38;1702606;83;21050;-86
2022/05/24 02:38:23;;;;;;;3.20;2.27;;;;;;;15.50;52.48;99394.38;1676225;84;21545;-86
2022/05/24 02:43:38;;;;;;;4.70;2.33;;;;;;;15.49;52.67;99378.15;1728214;83;21174;-86
2022/05/24 02:46:06;;;;;;;4.00;2.10;;;;;;;15.50;52.72;99377.21;1727634;83;21054;-86
2022/05/24 02:48:35;;;;;;;3.75;2.40;;;;;;;15.50;52.75;99381.17;1727586;83;21062;-86
2022/05/24 02:51:04;;;;;;;5.37;2.22;;;;;;;15.50;52.81;99377.21;1692429;84;21118;-86
2022/05/24 02:53:32;;;;;;;2.72;2.50;;;;;;;15.50;52.78;99376.73;1692795;83;21047;-87
2022/05/24 02:56:05;;;;;;;3.85;2.40;;;;;;;15.50;52.80;99377.21;1692100;84;20988;-86
2022/05/24 02:58:33;;;;;;;5.20;2.40;;;;;;;15.49;52.85;99388.26;1727977;83;21061;-85
2022/05/24 03:01:04;;;;;;;5.05;2.55;;;;;;;15.49;52.88;99392.67;1727963;83;21061;-85
2022/05/24 03:03:31;;;;;;;6.37;2.40;;;;;;;15.47;52.94;99388.84;1692993;84;21058;-86
2022/05/24 03:05:58;;;;;;;4.50;2.42;;;;;;;15.48;53.03;99384.39;1692640;84;21077;-85
2022/05/24 03:11:10;;;;;;;4.45;2.27;;;;;;;15.47;53.04;99378.76;1727828;83;21054;-86
2022/05/24 03:16:28;;;;;;;3.15;2.35;;;;;;;15.44;53.12;99398.80;1692471;84;21091;-86
2022/05/24 03:18:55;;;;;;;4.70;2.20;;;;;;;15.42;53.13;99389.65;1727493;83;21077;-86
2022/05/24 03:21:27;;;;;;;4.97;3.08;;;;;;;15.41;53.23;99394.58;1692544;84;21067;-86
2022/05/24 03:23:54;;;;;;;4.37;2.58;;;;;;;15.40;53.25;99397.67;1727597;83;21050;-86
2022/05/24 03:26:21;;;;;;;4.35;2.50;;;;;;;15.40;53.39;99401.63;1692805;83;21532;-85
2022/05/24 03:28:50;;;;;;;5.50;2.58;;;;;;;15.40;53.50;99406.91;1692860;84;21039;-86
2022/05/24 03:31:18;;;;;;;5.33;2.30;;;;;;;15.42;53.64;99408.13;1692792;84;21086;-86
2022/05/24 03:33:45;;;;;;;4.65;2.58;;;;;;;15.43;53.63;99403.20;1727577;83;21122;-86
2022/05/24 03:36:14;;;;;;;4.15;2.40;;;;;;;15.42;53.67;99409.45;1727953;83;21042;-86
2022/05/24 03:38:41;;;;;;;4.72;2.42;;;;;;;15.42;53.75;99409.94;1696431;83;21493;-85
2022/05/24 03:41:08;;;;;;;4.08;2.47;;;;;;;15.42;53.79;99413.41;1692073;84;21119;-86
2022/05/24 03:43:35;;;;;;;3.05;2.50;;;;;;;15.44;53.95;99410.67;1691735;84;21119;-87
2022/05/24 03:46:07;;;;;;;7.00;2.40;;;;;;;15.42;53.91;99405.49;1692010;84;21928;-86
2022/05/24 03:48:37;;;;;;;5.33;2.70;;;;;;;15.44;54.04;99410.20;1691699;84;20941;-86
2022/05/24 03:51:07;;;;;;;6.15;2.58;;;;;;;15.45;54.22;99404.43;1711185;83;21092;-85
2022/05/24 03:53:36;;;;;;;5.25;2.90;;;;;;;15.46;54.20;99406.94;1691867;84;21076;-86
2022/05/24 03:56:03;;;;;;;5.22;2.85;;;;;;;15.47;54.24;99411.28;1691882;84;21518;-85
2022/05/24 03:58:32;;;;;;;5.05;2.87;;;;;;;15.50;54.39;99412.86;1691760;84;21096;-86
2022/05/24 04:01:00;;;;;;;4.15;2.37;;;;;;;15.47;54.41;99411.28;1691719;84;21039;-86
2022/05/24 04:03:27;;;;;;;5.85;2.47;;;;;;;15.49;54.51;99409.84;1691750;84;21031;-85
2022/05/24 04:05:58;;;;;;;4.40;2.90;;;;;;;15.50;54.66;99404.94;1691451;84;21530;-86
2022/05/24 04:08:29;;;;;;;;;;;;;;;15.51;54.73;99402.66;1694141;84;21506;-86
2022/05/24 04:11:08;;;;;;;6.20;2.65;;;;;;;15.49;54.98;99406.74;1710809;83;21105;-86
2022/05/24 04:13:39;;;;;;;6.33;2.55;;;;;;;15.50;55.07;99408.42;1691575;84;21084;-86
2022/05/24 04:16:08;;;;;;;4.17;2.47;;;;;;;15.53;55.10;99407.35;1691246;84;21625;-86
2022/05/24 04:18:37;;;;;;;3.40;2.80;;;;;;;15.52;55.13;99404.33;1690937;84;21053;-87
2022/05/24 04:21:09;;;;;;;6.22;2.90;;;;;;;15.53;55.25;99408.19;1691458;84;21086;-86
2022/05/24 04:23:39;;;;;;;4.95;2.50;;;;;;;15.54;55.21;99411.67;1690836;84;21075;-86
2022/05/24 04:26:08;;;;;;;4.90;2.95;;;;;;;15.52;55.14;99413.56;1690673;84;21059;-87
2022/05/24 04:28:35;;;;;;;10.10;3.17;;;;;;;15.50;55.25;99412.86;1711020;83;21011;-86
2022/05/24 04:31:04;;;;;;;4.90;2.70;;;;;;;15.48;55.32;99416.92;1691646;84;21013;-86
2022/05/24 04:33:31;;;;;;;5.72;3.08;;;;;;;15.47;55.34;99418.38;1691739;84;21310;-86
2022/05/24 04:35:58;;;;;;;4.75;2.67;;;;;;;15.44;55.49;99415.95;1691372;83;21143;-86
2022/05/24 04:38:27;;;;;;;4.80;2.67;;;;;;;15.44;55.71;99415.48;1691707;84;21028;-86
2022/05/24 04:43:41;;;;;;;5.20;2.50;;;;;;;15.40;55.75;99420.11;1699194;84;21076;-86
2022/05/24 04:46:11;;;;;;;3.98;2.80;;;;;;;15.42;55.88;99418.70;1731612;82;21049;-87
2022/05/24 04:48:41;;;;;;;6.08;2.67;;;;;;;15.44;56.02;99415.48;1731706;81;21152;-86
2022/05/24 04:51:14;;;;;;;4.75;2.75;;;;;;;15.46;56.19;99420.63;1730630;82;21066;-86
2022/05/24 04:53:42;;;;;;;4.12;2.60;;;;;;;15.49;56.27;99425.23;1731391;82;21066;-85
2022/05/24 04:56:09;;;;;;;4.30;3.00;;;;;;;15.50;56.21;99424.27;1739545;80;21065;-83
2022/05/24 04:58:36;;;;;;;3.75;2.95;;;;;;;15.51;56.37;99425.94;1769632;80;21014;-84
2022/05/24 05:01:03;;;;;;;4.45;2.80;;;;;;;15.53;56.39;99428.00;1786769;80;22260;-84
2022/05/24 05:03:30;;;;;;;6.17;2.75;;;;;;;15.58;56.53;99422.39;1732600;80;20998;-84
2022/05/24 05:05:57;;;;;;;4.10;2.80;;;;;;;15.62;56.56;99423.84;1762088;80;21019;-84
2022/05/24 05:08:24;;;;;;;4.53;3.00;;;;;;;15.65;56.59;99426.25;1762446;81;21639;-84
2022/05/24 05:10:52;;;;;;;5.45;2.80;;;;;;;15.68;56.53;99423.41;1781784;80;21015;-84
2022/05/24 05:13:20;;;;;;;4.05;2.87;;;;;;;15.70;56.57;99425.95;1787565;80;22013;-85
2022/05/24 05:15:46;;;;;;;5.00;2.90;;;;;;;15.73;56.66;99424.41;1793764;78;21035;-84
2022/05/24 05:18:18;;;;;;;7.08;3.40;;;;;;;15.76;56.75;99425.01;1794046;80;21054;-85
2022/05/24 05:20:45;;;;;;;6.42;3.12;;;;;;;15.81;56.69;99429.48;1793979;80;20991;-84
2022/05/24 05:23:15;;;;;;;6.70;3.20;;;;;;;15.84;56.65;99420.48;1794244;80;21034;-85
2022/05/24 05:25:48;;;;;;;5.97;3.40;;;;;;;15.88;56.65;99421.09;1793892;80;22148;-84
2022/05/24 05:28:18;;;;;;;6.05;3.30;;;;;;;15.92;56.71;99414.15;1793834;80;21015;-83
2022/05/24 05:33:33;;;;;;;5.45;3.15;;;;;;;16.04;56.83;99416.34;1794042;80;21587;-84
2022/05/24 05:36:00;;;;;;;4.58;2.92;;;;;;;16.11;56.77;99423.34;1793928;80;21105;-81
2022/05/24 05:38:28;;;;;;;6.53;3.17;;;;;;;16.12;56.72;99424.54;1791378;80;21114;-86
2022/05/24 05:41:01;;;;;;;4.40;3.30;;;;;;;16.15;56.81;99424.30;1777119;80;21054;-87
2022/05/24 05:43:31;;;;;;;5.90;3.20;;;;;;;16.20;56.78;99425.28;1784824;80;21023;-85
2022/05/24 05:46:00;;;;;;;5.67;3.20;;;;;;;16.24;56.82;99430.23;1785038;79;21082;-86
2022/05/24 05:48:27;;;;;;;8.33;2.95;;;;;;;16.31;56.93;99433.24;1750449;81;21063;-86
2022/05/24 05:50:55;;;;;;;5.55;3.12;;;;;;;16.36;56.75;99424.97;1751753;81;21231;-87
2022/05/24 05:53:24;;;;;;;4.45;3.37;;;;;;;16.39;56.89;99427.38;1751656;79;21510;-88
2022/05/24 05:55:56;;;;;;;5.55;3.10;;;;;;;16.46;57.04;99440.02;1751619;81;21098;-89
2022/05/24 05:58:30;;;;;;;4.45;3.47;;;;;;;16.56;57.06;99441.95;1734000;82;21320;-88
2022/05/24 06:01:02;;;;;;;10.10;3.47;;;;;;;16.66;57.09;99445.09;1667666;84;21017;-90
2022/05/24 06:03:32;;;;;;;4.92;3.40;;;;;;;16.78;57.01;99447.29;1710227;82;21176;-87
2022/05/24 06:06:00;;;;;;;4.97;3.45;;;;;;;16.89;57.06;99449.09;1689104;83;21073;-89
2022/05/24 06:08:27;;;;;;;5.37;3.12;;;;;;;16.99;56.94;99439.94;1688509;85;21024;-86
2022/05/24 06:10:54;;;;;;;6.30;3.35;;;;;;;17.11;56.99;99432.36;1739426;82;21608;-80
2022/05/24 06:13:22;;;;;;;4.40;2.85;;;;;;;17.11;56.99;99432.36;1690726;84;21050;-78
2022/05/24 06:15:51;;;;;;;6.30;3.55;;;;;;;17.21;56.87;99435.97;1765393;80;21140;-84
2022/05/24 06:18:18;;;;;;;5.70;3.10;;;;;;;17.29;56.80;99441.95;1774639;80;22266;-84
2022/05/24 06:20:45;;;;;;;4.78;3.02;;;;;;;17.34;56.77;99441.11;1748673;82;21571;-85
2022/05/24 06:23:12;;;;;;;4.28;2.85;;;;;;;17.39;56.74;99448.20;1748489;82;21437;-81
2022/05/24 06:25:42;;;;;;;5.37;3.15;;;;;;;17.44;56.60;99450.50;1748579;82;21026;-83
2022/05/24 06:28:14;;;;;;;5.95;3.22;;;;;;;17.46;56.68;99449.41;1761564;80;21133;-79
2022/05/24 06:30:41;;;;;;;4.42;2.83;;;;;;;17.48;56.78;99447.94;1782148;80;21051;-81
2022/05/24 06:33:11;;;;;;;7.05;3.12;;;;;;;17.48;56.75;99454.08;1785337;78;21023;-82
2022/05/24 06:35:40;;;;;;;6.70;3.33;;;;;;;17.42;56.66;99445.31;1785168;80;21646;-79
2022/05/24 06:38:07;;;;;;;6.08;3.50;;;;;;;17.45;56.66;99452.17;1769678;80;21082;-76
2022/05/24 06:40:35;;;;;;;7.33;3.20;;;;;;;17.38;56.55;99444.72;1753970;80;21116;-77
2022/05/24 06:43:02;;;;;;;3.20;2.87;;;;;;;17.41;56.59;99455.56;1761227;80;21050;-79
2022/05/24 06:45:29;;;;;;;4.62;3.05;;;;;;;17.42;56.76;99459.04;1748674;81;21015;-76
2022/05/24 06:47:56;;;;;;;5.55;3.20;;;;;;;17.43;56.85;99451.44;1748967;82;21087;-76
2022/05/24 06:50:24;;;;;;;7.85;3.00;;;;;;;17.46;56.96;99454.70;1748552;82;21327;-76
2022/05/24 06:52:56;;;;;;;7.08;3.40;;;;;;;17.49;57.18;99461.56;1748392;82;21213;-76
2022/05/24 06:55:24;;;;;;;3.87;3.08;;;;;;;17.53;57.27;99462.50;1748493;82;21055;-77
2022/05/24 06:57:51;;;;;;;4.70;3.25;;;;;;;17.54;57.21;99456.25;1748637;82;21008;-77
2022/05/24 07:03:11;;;;;;;5.60;2.65;;;;;;;17.62;57.30;99467.53;1748738;82;20996;-76
2022/05/24 07:05:39;;;;;;;3.65;2.87;;;;;;;17.67;57.46;99471.14;1755901;80;21136;-76
2022/05/24 07:08:06;;;;;;;6.12;2.87;;;;;;;17.77;57.37;99470.77;1784512;79;20955;-76
2022/05/24 07:10:36;;;;;;;3.85;2.80;;;;;;;17.77;57.37;99470.77;1784886;80;21249;-76
2022/05/24 07:13:10;;;;;;;4.85;2.62;;;;;;;17.81;57.40;99466.91;1785822;80;21000;-76
2022/05/24 07:15:38;;;;;;;6.03;3.42;;;;;;;17.84;57.52;99475.94;1783874;80;22284;-77
2022/05/24 07:18:06;;;;;;;3.70;2.77;;;;;;;17.88;57.45;99480.52;1785758;79;21536;-77
2022/05/24 07:20:36;;;;;;;4.25;3.00;;;;;;;17.89;57.33;99481.70;1785469;79;20980;-86
2022/05/24 07:23:17;;;;;;;5.65;2.72;;;;;;;17.91;57.62;99481.59;1785519;80;21023;-79
2022/05/24 07:25:45;;;;;;;;;;;;;;;17.91;57.62;99481.59;1788250;80;20996;-78
2022/05/24 07:28:18;;;;;;;4.45;3.08;;;;;;;17.94;57.46;99486.64;1771986;81;20691;-78
2022/05/24 07:30:47;;;;;;;5.40;3.10;;;;;;;17.92;57.41;99488.56;1750581;81;21110;-78
2022/05/24 07:33:16;;;;;;;;;;;;;;;17.93;57.49;99491.56;1753421;82;21001;-78
2022/05/24 07:35:43;;;;;;;4.17;2.40;;;;;;;17.94;57.68;99486.64;1750678;82;20432;-78
2022/05/24 07:38:12;;;;;;;4.30;3.00;;;;;;;17.99;57.69;99491.09;1750919;82;21025;-78
2022/05/24 07:46:14;;;;;;;4.40;3.10;;;;;;;18.12;57.75;99487.75;1744782;82;22030;-78
2022/05/24 07:48:42;;;;;;;3.35;2.58;;;;;;;18.18;57.72;99485.08;1745007;82;21060;-78
2022/05/24 07:51:09;;;;;;;5.90;3.17;;;;;;;18.22;57.87;99481.22;1744831;82;21037;-78
2022/05/24 07:53:37;;;;;;;5.53;2.72;;;;;;;18.28;57.86;99480.70;1744910;81;21040;-78
2022/05/24 07:56:05;;;;;;;4.40;2.95;;;;;;;18.33;57.86;99483.81;1740234;81;21118;-78
2022/05/24 07:58:32;;;;;;;5.03;3.12;;;;;;;18.38;57.69;99485.59;1745026;82;20945;-78
2022/05/24 08:01:00;;;;;;;4.35;2.92;;;;;;;18.40;57.74;99488.10;1744739;81;21173;-78
2022/05/24 08:03:28;;;;;;;5.22;2.83;;;;;;;18.42;57.78;99483.02;1745090;82;21048;-78
2022/05/24 08:05:56;;;;;;;6.92;3.02;;;;;;;18.46;57.82;99482.30;1744810;82;21013;-84
2022/05/24 08:08:23;;;;;;;4.65;2.40;;;;;;;18.49;57.87;99489.52;1744704;82;21917;-78
2022/05/24 08:10:50;;;;;;;6.92;2.70;;;;;;;18.54;57.91;99492.25;1745056;82;21511;-78
2022/05/24 08:13:19;;;;;;;5.25;2.98;;;;;;;18.59;58.08;99496.69;1744813;82;21605;-78
2022/05/24 08:15:48;;;;;;;6.20;3.00;;;;;;;18.63;58.14;99505.59;1745209;81;21026;-78
2022/05/24 08:18:15;;;;;;;4.47;2.60;;;;;;;18.65;58.22;99500.14;1744756;82;21025;-78
2022/05/24 08:20:42;;;;;;;5.87;2.87;;;;;;;18.65;58.29;99495.70;1745047;81;21094;-78
2022/05/24 08:23:11;;;;;;;5.60;2.65;;;;;;;18.69;58.45;99500.25;1744731;82;21115;-78
2022/05/24 08:25:39;;;;;;;5.67;2.70;;;;;;;18.76;58.48;99500.59;1745045;82;21061;-78
2022/05/24 08:28:07;;;;;;;3.35;2.55;;;;;;;18.83;58.47;99507.91;1744714;82;21025;-78
2022/05/24 08:30:38;;;;;;;6.97;2.70;;;;;;;18.90;58.44;99508.20;1745318;82;21009;-78
2022/05/24 08:33:06;;;;;;;4.22;2.85;;;;;;;18.93;58.39;99513.28;1744893;82;22040;-78
2022/05/24 08:35:35;;;;;;;5.30;2.70;;;;;;;18.98;58.35;99511.05;1745063;82;20990;-78
2022/05/24 08:38:05;;;;;;;4.08;2.58;;;;;;;19.02;58.39;99504.51;1744933;82;21045;-78
2022/05/24 08:40:35;;;;;;;;;;;;;;;19.08;58.52;99500.48;1748767;80;20986;-78
2022/05/24 08:43:40;;;;;;;7.08;2.40;;;;;;;19.14;58.98;99501.27;1750872;82;20551;-78
2022/05/24 08:49:07;;;;;;;6.08;2.90;;;;;;;19.27;59.05;99511.19;1750586;82;20937;-77
2022/05/24 08:51:51;;;;;;;7.25;2.98;;;;;;;19.38;58.93;99507.09;1750982;82;21040;-78
2022/05/24 08:54:27;;;;;;;4.28;2.83;;;;;;;19.48;58.99;99511.59;1750500;82;21032;-78
2022/05/24 08:57:05;;;;;;;5.20;2.67;;;;;;;19.59;58.89;99507.49;1750848;82;21081;-77
2022/05/24 08:59:44;;;;;;;6.70;2.90;;;;;;;19.66;58.75;99506.02;1750632;82;21157;-78
2022/05/24 09:02:12;;;;;;;4.03;2.33;;;;;;;19.68;58.59;99501.41;1750917;82;20997;-78
2022/05/24 09:04:40;;;;;;;6.70;2.95;;;;;;;19.74;58.94;99507.50;1750459;82;21633;-78
2022/05/24 09:07:39;;;;;;;4.53;2.92;;;;;;;19.87;58.99;99513.03;1750899;82;21018;-78
2022/05/24 09:10:25;;;;;;;;;;;;;;;20.02;59.11;99515.66;1742498;81;21034;-77
2022/05/24 09:13:16;;;;;;;3.47;2.50;;;;;;;20.22;58.95;99509.35;1738359;80;21894;-77
2022/05/24 09:16:17;;;;;;;10.05;3.00;;;;;;;20.38;58.69;99505.30;1758023;80;21468;-88
2022/05/24 09:19:15;;;;;;;8.80;2.62;;;;;;;20.56;58.88;99502.77;1757001;81;21033;-78
2022/05/24 09:21:44;;;;;;;4.37;2.35;;;;;;;20.78;58.94;99502.94;1758764;81;21005;-79
2022/05/24 09:24:33;;;;;;;4.95;2.60;;;;;;;21.01;58.86;99494.96;1758645;81;21052;-79
2022/05/24 09:27:23;;;;;;;4.15;2.45;;;;;;;21.22;58.64;99500.55;1757871;81;21124;-78
2022/05/24 09:30:05;;;;;;;3.52;2.45;;;;;;;21.43;58.41;99493.19;1758532;81;21630;-77
2022/05/24 09:32:44;;;;;;;5.65;2.35;;;;;;;21.67;58.37;99500.64;1758809;81;21052;-77
2022/05/24 09:35:22;;;;;;;5.95;2.77;;;;;;;21.83;57.75;99506.63;1759050;81;21044;-77
2022/05/24 09:38:08;;;;;;;4.08;2.52;;;;;;;21.92;57.57;99502.20;1758701;81;21064;-78
2022/05/24 09:41:04;;;;;;;5.17;2.50;;;;;;;22.00;57.09;99507.16;1758813;80;21341;-77
2022/05/24 09:43:33;;;;;;;4.70;2.40;;;;;;;22.05;56.96;99506.67;1757233;79;21068;-77
2022/05/24 09:46:05;;;;;;;6.25;2.75;;;;;;;22.18;57.12;99512.51;1758593;81;21667;-77
2022/05/24 09:48:37;;;;;;;6.00;2.55;;;;;;;22.37;57.13;99514.18;1758624;81;21092;-77
2022/05/24 09:51:12;;;;;;;4.03;2.60;;;;;;;22.50;56.81;99509.75;1758545;81;21474;-78
2022/05/24 09:53:51;;;;;;;2.98;2.40;;;;;;;22.65;56.51;99512.72;1758850;81;21503;-78
2022/05/24 09:56:29;;;;;;;;;;;;;;;22.76;56.27;99506.29;1761326;81;21286;-77
2022/05/24 09:59:01;;;;;;;5.33;2.50;;;;;;;22.89;56.30;99515.56;1772264;80;20590;-77
2022/05/24 10:01:41;;;;;;;4.35;2.30;;;;;;;22.97;55.82;99513.95;1750525;82;21072;-77
2022/05/24 10:04:31;;;;;;;5.62;2.37;;;;;;;22.97;55.59;99508.10;1750577;81;21052;-77
2022/05/24 10:07:24;;;;;;;5.83;2.33;;;;;;;23.03;55.65;99509.30;1750132;80;21256;-78
2022/05/24 10:10:17;;;;;;;6.75;2.52;;;;;;;23.11;55.65;99510.21;1750812;82;21057;-78
2022/05/24 10:13:29;;;;;;;4.33;2.50;;;;;;;23.19;55.67;99509.39;1750479;81;21044;-78
2022/05/24 10:16:38;;;;;;;4.40;2.27;;;;;;;23.21;55.38;99512.75;1749945;80;21072;-78
2022/05/24 10:19:44;;;;;;;3.60;2.08;;;;;;;23.20;55.32;99513.76;1750905;82;21507;-78
2022/05/24 10:22:39;;;;;;;6.65;2.35;;;;;;;23.13;55.35;99510.87;1748609;80;21194;-78
2022/05/24 10:25:17;;;;;;;5.75;2.40;;;;;;;23.13;55.31;99513.54;1750686;82;21097;-78
2022/05/24 10:28:25;;;;;;;3.75;2.22;;;;;;;23.19;55.60;99517.41;1750144;81;21538;-78
2022/05/24 10:31:06;;;;;;;6.62;2.87;;;;;;;23.30;55.62;99513.63;1751154;82;21092;-77
2022/05/24 10:39:45;;;;;;;4.78;2.35;;;;;;;24.04;55.41;99510.20;1750710;82;21040;-79
2022/05/24 10:42:35;;;;;;;3.83;2.30;;;;;;;24.11;54.92;99509.53;1746712;80;21566;-78
2022/05/24 10:45:11;;;;;;;5.97;2.30;;;;;;;24.06;54.81;99505.20;1672574;85;21196;-77
2022/05/24 10:47:43;;;;;;;5.30;2.17;;;;;;;23.94;54.61;99514.02;1676585;85;21055;-77
2022/05/24 10:50:33;;;;;;;3.22;2.17;;;;;;;23.80;54.58;99513.66;1715387;80;21171;-81
2022/05/24 10:53:08;;;;;;;4.45;1.90;;;;;;;23.68;54.60;99514.11;1774211;80;21511;-84
2022/05/24 10:55:47;;;;;;;3.80;1.90;;;;;;;23.54;54.68;99511.55;1751247;82;21075;-79
2022/05/24 10:58:17;;;;;;;3.25;1.50;;;;;;;23.38;54.50;99513.66;1756722;80;21086;-79
2022/05/24 11:01:21;;;;;;;5.58;2.08;;;;;;;23.26;54.39;99520.30;1768779;80;21046;-80
2022/05/24 11:03:53;;;;;;;6.03;1.80;;;;;;;23.18;54.54;99515.75;1781931;80;21059;-85
2022/05/24 11:06:41;;;;;;;3.20;1.98;;;;;;;23.11;54.54;99524.91;1781748;80;21000;-87
2022/05/24 11:09:16;;;;;;;4.33;1.98;;;;;;;23.04;55.00;99517.68;1781962;80;21027;-86
2022/05/24 11:12:12;;;;;;;3.27;2.00;;;;;;;22.98;55.25;99512.47;1781478;80;20988;-85
2022/05/24 11:14:47;;;;;;;2.42;2.00;;;;;;;22.97;55.85;99511.28;1775446;80;21027;-89
2022/05/24 11:17:17;;;;;;;3.50;2.10;;;;;;;22.94;56.19;99513.23;1766395;80;22491;-82
2022/05/24 11:19:49;;;;;;;2.25;1.55;;;;;;;22.88;56.34;99523.22;1722540;83;21071;-83
2022/05/24 11:22:39;;;;;;;3.77;1.80;;;;;;;22.83;56.28;99526.86;1722621;82;21079;-82
2022/05/24 11:25:25;;;;;;;2.62;1.90;;;;;;;22.81;56.59;99525.33;1722522;82;21031;-84
2022/05/24 11:28:03;;;;;;;3.75;2.00;;;;;;;22.82;56.41;99513.17;1722770;82;21114;-83
2022/05/24 11:30:40;;;;;;;3.50;2.42;;;;;;;22.86;56.92;99515.88;1722312;83;21190;-83
2022/05/24 11:33:11;;;;;;;5.97;2.00;;;;;;;22.90;57.42;99523.91;1722648;82;21478;-83
2022/05/24 11:35:46;;;;;;;3.70;2.50;;;;;;;22.91;57.72;99517.55;1721811;82;21115;-90
2022/05/24 11:38:30;;;;;;;6.55;2.42;;;;;;;22.90;57.76;99520.41;1722564;83;21031;-77
2022/05/24 11:41:07;;;;;;;3.35;2.50;;;;;;;22.91;57.78;99520.73;1729250;80;39435;-78
2022/05/24 11:43:46;;;;;;;4.75;2.40;;;;;;;22.92;57.78;99521.09;1763569;80;21125;-80
2022/05/24 11:46:39;;;;;;;4.50;2.47;;;;;;;22.84;58.23;99517.03;1774273;80;21315;-80
2022/05/24 11:49:24;;;;;;;3.55;2.17;;;;;;;22.68;58.61;99516.41;1772277;80;20967;-77
2022/05/24 11:51:54;;;;;;;5.95;2.42;;;;;;;22.52;59.16;99518.45;1773286;80;21027;-83
2022/05/24 11:54:29;;;;;;;8.10;3.47;;;;;;;22.36;59.72;99531.67;1774481;80;20997;-80
2022/05/24 11:57:11;;;;;;;7.12;2.95;;;;;;;22.26;60.55;99529.93;1774682;80;22267;-80
2022/05/24 11:59:49;;;;;;;10.38;4.33;;;;;;;22.18;61.27;99535.70;1774072;80;21086;-83
2022/05/24 12:07:54;;;;;;;11.57;3.85;;;;;;;22.00;62.13;99535.64;1767485;80;21047;-86
2022/05/24 12:08:34;;;;;;;7.62;3.42;;;;;;;21.41;63.51;99540.47;1744366;82;21042;-87
2022/05/24 12:11:33;;;;;;;6.75;3.22;;;;;;;21.15;64.34;99545.11;1708502;83;21766;-89
2022/05/24 12:14:20;;;;;;;6.62;3.25;;;;;;;20.96;64.95;99546.50;1711310;83;20953;-83
2022/05/24 12:16:59;;;;;;;10.75;3.58;;;;;;;20.80;65.74;99563.06;1701242;82;21094;-90
2022/05/24 12:19:43;;;;;;;5.40;2.98;;;;;;;20.64;65.84;99563.64;1685695;84;21020;-88
2022/05/24 12:22:15;;;;;;;8.10;3.10;;;;;;;20.55;66.65;99570.32;1688997;83;21112;-92
2022/05/24 12:24:48;;;;;;;4.00;2.17;;;;;;;20.48;67.11;99589.48;1688483;83;21060;-91
2022/05/24 12:27:32;;;;;;;3.80;2.35;;;;;;;20.32;66.49;99593.19;1688176;84;21016;-85
2022/05/24 12:30:33;;;;;;;5.17;2.42;;;;;;;20.06;66.81;99602.17;1688575;85;21023;-94
2022/05/24 12:33:34;;;;;;;6.47;2.58;;;;;;;19.83;67.22;99609.05;1760641;80;21043;-90
2022/05/24 12:36:34;;;;;;;3.58;2.70;;;;;;;19.61;68.37;99606.56;1770161;80;21059;-87
2022/05/24 12:39:16;;;;;;;5.42;3.10;;;;;;;19.45;69.51;99596.41;1774459;80;21249;-83
2022/05/24 12:41:59;;;;;;;3.37;3.08;;;;;;;19.37;70.33;99586.94;1776253;79;21035;-91
2022/05/24 12:44:45;;;;;;;3.83;2.60;;;;;;;19.34;71.08;99577.91;1773282;79;21008;-87
2022/05/24 12:47:15;;;;;;;4.55;3.25;;;;;;;19.33;71.79;99576.23;1778967;80;21042;-88
2022/05/24 12:49:56;;;;;;;4.72;2.65;;;;;;;19.34;72.35;99572.59;1776530;79;21654;-88